Time;durP1;ratioP1;P1;durP2;ratioP2;P2;SDS_P1;SDS_P2;PMS_P1;PMS_P2;Temp;Humidity;BMP_temperature;BMP_pressure;BME280_temperature;BME280_humidity;BME280_pressure;Samples;Min_cycle;Max_cycle;Signal;HPM_P1;HPM_P2
2023/05/07 00:01:29;;;;;;;4.70;2.10;;;;;;;11.19;44.62;101458.23;109342;1244;61795;-74
2023/05/07 00:03:58;;;;;;;7.10;2.50;;;;;;;11.17;44.50;101459.75;109433;1244;60008;-74
2023/05/07 00:06:28;;;;;;;6.60;2.30;;;;;;;11.18;43.70;101463.33;109408;1244;63265;-74
2023/05/07 00:08:59;;;;;;;4.90;2.00;;;;;;;11.27;43.10;101459.67;109464;1247;57760;-74
2023/05/07 00:11:28;;;;;;;5.00;1.90;;;;;;;11.31;42.49;101456.91;109513;1244;60417;-74
2023/05/07 00:13:57;;;;;;;3.30;1.90;;;;;;;11.33;42.66;101460.27;109401;1244;73415;-74
2023/05/07 00:16:25;;;;;;;10.00;3.10;;;;;;;11.43;41.63;101455.62;109362;1244;72851;-74
2023/05/07 00:18:54;;;;;;;3.20;1.80;;;;;;;11.45;41.46;101456.56;109432;1244;60472;-74
2023/05/07 00:21:26;;;;;;;3.70;1.90;;;;;;;11.41;41.80;101458.07;109345;1248;62555;-74
2023/05/07 00:23:55;;;;;;;6.30;2.00;;;;;;;11.34;41.98;101456.90;109459;1247;61276;-74
2023/05/07 00:26:23;;;;;;;5.00;1.70;;;;;;;11.31;41.71;101457.32;109428;1244;57289;-74
2023/05/07 00:28:52;;;;;;;4.80;2.20;;;;;;;11.33;41.50;101454.05;109503;1247;62932;-74
2023/05/07 00:31:21;;;;;;;4.80;2.00;;;;;;;11.34;41.35;101450.12;109457;1245;61882;-74
2023/05/07 00:33:50;;;;;;;5.10;1.80;;;;;;;11.35;41.48;101447.11;109293;1244;70465;-74
2023/05/07 00:36:18;;;;;;;5.90;1.90;;;;;;;11.36;41.48;101450.83;109428;1244;74870;-74
2023/05/07 00:38:47;;;;;;;5.20;1.90;;;;;;;11.34;41.56;101452.05;109463;1247;57500;-74
2023/05/07 00:41:16;;;;;;;7.20;2.10;;;;;;;11.28;41.60;101452.23;109422;1245;57807;-74
2023/05/07 00:43:45;;;;;;;3.40;2.10;;;;;;;11.24;42.10;101459.52;109477;1244;62241;-76
2023/05/07 00:46:15;;;;;;;3.10;1.70;;;;;;;11.17;42.50;101459.23;109424;1244;71459;-74
2023/05/07 00:48:45;;;;;;;8.90;2.40;;;;;;;11.11;42.70;101462.39;109359;1244;60401;-74
2023/05/07 00:51:14;;;;;;;4.60;1.80;;;;;;;11.06;42.35;101462.88;109496;1244;74068;-74
2023/05/07 00:53:43;;;;;;;5.10;2.20;;;;;;;11.02;42.53;101465.19;109385;1244;58932;-74
2023/05/07 00:56:12;;;;;;;4.50;1.90;;;;;;;11.04;42.73;101469.48;109441;1244;57217;-74
2023/05/07 00:58:41;;;;;;;3.40;1.70;;;;;;;11.05;42.64;101471.31;109339;1244;73516;-74
2023/05/07 01:01:10;;;;;;;4.00;2.20;;;;;;;11.08;42.50;101471.29;109465;1243;72551;-75
2023/05/07 01:03:38;;;;;;;8.40;2.50;;;;;;;11.09;42.20;101467.23;109451;1244;70017;-75
2023/05/07 01:06:09;;;;;;;2.70;1.70;;;;;;;11.07;42.24;101468.05;109470;1243;74326;-75
2023/05/07 01:08:42;;;;;;;4.60;2.00;;;;;;;11.08;42.19;101459.78;109470;1247;62078;-75
2023/05/07 01:11:12;;;;;;;6.70;1.90;;;;;;;11.07;42.16;101458.95;109409;1247;57717;-74
2023/05/07 01:13:41;;;;;;;4.60;1.60;;;;;;;11.08;42.10;101453.82;109390;1243;64474;-74
2023/05/07 01:16:10;;;;;;;6.00;1.90;;;;;;;11.08;42.14;101449.80;109477;1244;61459;-75
2023/05/07 01:18:39;;;;;;;4.70;1.90;;;;;;;11.10;41.90;101447.83;109551;1244;59174;-74
2023/05/07 01:21:11;;;;;;;2.80;1.60;;;;;;;11.16;41.56;101446.77;109454;1247;63218;-75
2023/05/07 01:23:41;;;;;;;5.00;1.70;;;;;;;11.14;42.03;101439.52;109435;1247;61397;-74
2023/05/07 01:26:09;;;;;;;5.50;1.80;;;;;;;11.13;42.02;101437.88;109540;1244;60802;-74
2023/05/07 01:28:38;;;;;;;6.50;2.00;;;;;;;11.07;42.09;101439.77;109467;1248;62747;-75
2023/05/07 01:31:09;;;;;;;3.90;1.80;;;;;;;11.08;41.77;101438.17;109658;1243;72249;-75
2023/05/07 01:33:40;;;;;;;4.80;2.00;;;;;;;11.08;41.83;101436.61;109573;1244;70136;-74
2023/05/07 01:36:10;;;;;;;5.10;1.90;;;;;;;11.08;41.79;101437.45;109718;1244;72431;-74
2023/05/07 01:38:40;;;;;;;5.90;2.10;;;;;;;11.05;42.15;101437.64;109745;1247;60722;-74
2023/05/07 01:41:09;;;;;;;5.60;1.70;;;;;;;10.98;42.31;101434.63;109607;1243;61772;-75
2023/05/07 01:43:38;;;;;;;4.90;1.80;;;;;;;10.92;42.47;101435.70;109560;1244;73338;-75
2023/05/07 01:46:09;;;;;;;4.40;1.90;;;;;;;10.87;42.39;101438.22;109537;1245;61949;-74
2023/05/07 01:48:39;;;;;;;4.20;1.90;;;;;;;10.84;42.37;101436.36;109563;1244;70381;-74
2023/05/07 01:51:08;;;;;;;3.60;1.90;;;;;;;10.85;42.60;101434.02;109477;1246;63008;-75
2023/05/07 01:53:40;;;;;;;3.80;1.80;;;;;;;10.89;42.68;101431.02;109481;1247;60515;-75
2023/05/07 01:56:09;;;;;;;2.80;1.70;;;;;;;10.85;42.63;101429.53;109435;1244;57189;-75
2023/05/07 01:58:39;;;;;;;2.80;1.50;;;;;;;10.80;42.94;101430.48;109428;1244;62193;-75
2023/05/07 02:01:08;;;;;;;4.40;1.60;;;;;;;10.76;42.98;101430.09;109360;1243;71435;-75
2023/05/07 02:03:37;;;;;;;5.10;1.90;;;;;;;10.69;43.15;101427.88;109457;1244;70302;-75
2023/05/07 02:06:09;;;;;;;3.60;1.50;;;;;;;10.66;43.08;101428.40;109572;1244;74687;-74
2023/05/07 02:08:40;;;;;;;2.60;1.80;;;;;;;10.64;43.30;101424.85;109410;1247;57782;-74
2023/05/07 02:11:09;;;;;;;3.10;1.70;;;;;;;10.64;43.37;101419.33;109348;1248;61250;-75
2023/05/07 02:13:38;;;;;;;5.50;1.70;;;;;;;10.59;43.72;101416.33;109370;1248;62967;-75
2023/05/07 02:16:07;;;;;;;4.80;2.30;;;;;;;10.56;44.09;101413.02;109447;1247;60857;-74
2023/05/07 02:18:36;;;;;;;6.90;2.10;;;;;;;10.53;44.11;101412.30;109437;1248;59096;-74
2023/05/07 02:21:05;;;;;;;4.20;1.80;;;;;;;10.50;44.32;101407.27;109498;1244;73869;-75
2023/05/07 02:23:33;;;;;;;2.80;1.70;;;;;;;10.51;44.18;101405.48;109479;1245;60967;-75
2023/05/07 02:26:04;;;;;;;3.00;1.80;;;;;;;10.49;44.27;101407.30;109437;1248;60894;-75
2023/05/07 02:28:35;;;;;;;4.40;1.80;;;;;;;10.45;44.77;101407.05;109522;1245;74502;-75
2023/05/07 02:31:06;;;;;;;5.90;1.80;;;;;;;10.47;44.54;101407.45;109356;1247;61695;-75
2023/05/07 02:33:35;;;;;;;3.70;1.80;;;;;;;10.44;44.59;101400.55;109315;1244;70846;-75
2023/05/07 02:36:10;;;;;;;2.90;1.80;;;;;;;10.44;44.66;101399.12;109430;1244;73560;-74
2023/05/07 02:38:50;;;;;;;4.30;1.70;;;;;;;10.46;44.53;101399.16;109366;1247;60618;-74
2023/05/07 02:41:20;;;;;;;5.20;1.70;;;;;;;10.43;44.52;101399.33;109508;1245;57739;-74
2023/05/07 02:43:49;;;;;;;4.90;2.10;;;;;;;10.42;44.38;101401.30;109443;1244;62991;-75
2023/05/07 02:46:18;;;;;;;6.40;2.60;;;;;;;10.45;44.53;101401.52;109642;1244;70449;-74
2023/05/07 02:48:49;;;;;;;6.00;2.00;;;;;;;10.48;44.42;101405.64;109492;1244;69696;-74
2023/05/07 02:51:21;;;;;;;6.10;1.90;;;;;;;10.51;44.44;101405.10;109452;1245;63483;-74
2023/05/07 02:53:54;;;;;;;4.30;2.10;;;;;;;10.51;44.76;101406.53;109477;1247;61309;-74
2023/05/07 02:56:26;;;;;;;5.10;2.40;;;;;;;10.47;44.71;101404.64;109649;1245;57778;-75
2023/05/07 02:58:55;;;;;;;4.40;2.30;;;;;;;10.50;44.89;101400.48;109389;1248;73072;-75
2023/05/07 03:01:25;;;;;;;5.70;2.40;;;;;;;10.53;44.68;101400.45;109371;1244;71410;-75
2023/05/07 03:04:00;;;;;;;4.80;2.30;;;;;;;10.52;44.78;101394.77;109391;1248;60263;-75
2023/05/07 03:06:29;;;;;;;9.10;2.40;;;;;;;10.56;44.67;101389.34;109429;1243;62480;-75
2023/05/07 03:08:58;;;;;;;6.90;2.10;;;;;;;10.56;44.60;101384.91;109475;1245;61063;-74
2023/05/07 03:11:26;;;;;;;5.90;2.30;;;;;;;10.57;45.18;101386.29;109523;1245;60552;-75
2023/05/07 03:13:55;;;;;;;9.50;2.30;;;;;;;10.63;44.96;101388.20;109340;1245;63071;-75
2023/05/07 03:16:24;;;;;;;6.80;2.20;;;;;;;10.64;44.92;101383.59;109393;1244;61504;-75
2023/05/07 03:18:53;;;;;;;8.20;2.10;;;;;;;10.64;44.79;101381.69;109370;1244;68901;-75
2023/05/07 03:21:22;;;;;;;4.20;2.20;;;;;;;10.63;45.23;101383.13;109360;1243;74657;-74
2023/05/07 03:23:50;;;;;;;4.80;2.30;;;;;;;10.67;44.92;101379.40;109173;1248;60951;-74
2023/05/07 03:26:20;;;;;;;5.40;2.40;;;;;;;10.74;45.11;101380.01;109267;1245;60836;-75
2023/05/07 03:28:49;;;;;;;5.60;2.30;;;;;;;10.72;44.88;101385.36;109339;1244;63592;-75
2023/05/07 03:31:18;;;;;;;6.20;2.30;;;;;;;10.71;45.06;101387.35;109457;1244;70270;-75
2023/05/07 03:33:55;;;;;;;4.10;2.50;;;;;;;10.70;45.25;101389.99;109400;1244;58995;-75
2023/05/07 03:36:26;;;;;;;6.00;2.20;;;;;;;10.72;45.13;101386.26;109411;1244;72666;-74
2023/05/07 03:38:55;;;;;;;4.20;2.20;;;;;;;10.75;45.41;101380.81;109418;1247;59569;-74
2023/05/07 03:41:26;;;;;;;9.20;2.80;;;;;;;10.80;45.00;101382.04;109410;1243;57722;-74
2023/05/07 03:43:55;;;;;;;5.20;2.20;;;;;;;10.83;45.18;101383.45;109426;1245;62983;-75
2023/05/07 03:46:25;;;;;;;6.10;2.70;;;;;;;10.78;45.41;101387.92;109472;1244;71350;-75
2023/05/07 03:48:55;;;;;;;7.20;2.40;;;;;;;10.79;45.44;101387.35;109433;1243;60343;-75
2023/05/07 03:51:25;;;;;;;3.30;2.00;;;;;;;10.77;45.40;101388.56;109422;1244;62500;-76
2023/05/07 03:53:54;;;;;;;6.00;2.20;;;;;;;10.81;45.16;101385.30;109406;1248;61272;-76
2023/05/07 03:56:26;;;;;;;4.50;2.00;;;;;;;10.83;45.11;101378.04;109500;1244;60804;-74
2023/05/07 03:58:56;;;;;;;6.50;2.40;;;;;;;10.84;45.02;101379.92;109445;1247;65168;-76
2023/05/07 04:01:24;;;;;;;8.50;2.70;;;;;;;10.82;45.21;101381.25;109422;1244;71862;-75
2023/05/07 04:03:53;;;;;;;6.60;2.60;;;;;;;10.89;45.38;101385.52;109487;1244;60219;-76
2023/05/07 04:06:22;;;;;;;5.50;2.50;;;;;;;10.95;45.24;101386.17;109419;1244;63690;-75
2023/05/07 04:08:51;;;;;;;5.20;2.10;;;;;;;10.98;45.24;101386.35;109452;1247;57676;-76
2023/05/07 04:11:20;;;;;;;7.30;2.70;;;;;;;10.97;45.38;101386.94;109398;1244;60645;-75
2023/05/07 04:13:49;;;;;;;4.10;2.10;;;;;;;11.05;45.24;101392.86;109371;1244;73725;-75
2023/05/07 04:16:20;;;;;;;6.70;3.00;;;;;;;11.05;45.18;101393.88;109316;1244;61905;-75
2023/05/07 04:18:49;;;;;;;4.30;2.10;;;;;;;11.07;44.89;101395.73;109332;1244;58985;-75
2023/05/07 04:21:20;;;;;;;10.40;2.60;;;;;;;11.15;44.46;101397.61;109430;1244;71140;-76
2023/05/07 04:23:50;;;;;;;3.50;2.10;;;;;;;11.20;44.31;101398.00;109361;1247;61313;-75
2023/05/07 04:26:19;;;;;;;5.30;2.20;;;;;;;11.18;43.88;101401.09;109447;1243;60114;-76
2023/05/07 04:28:47;;;;;;;5.70;2.40;;;;;;;11.22;44.20;101404.50;109492;1244;74182;-75
2023/05/07 04:31:16;;;;;;;5.40;2.70;;;;;;;11.28;44.03;101406.75;109560;1244;62409;-75
2023/05/07 04:33:46;;;;;;;7.40;2.10;;;;;;;11.32;44.22;101407.02;109414;1243;69708;-75
2023/05/07 04:36:15;;;;;;;4.50;2.00;;;;;;;11.31;44.31;101402.33;109436;1243;73161;-75
2023/05/07 04:38:48;;;;;;;4.20;1.90;;;;;;;11.30;44.46;101399.27;109450;1246;61040;-75
2023/05/07 04:41:18;;;;;;;4.60;2.00;;;;;;;11.27;44.50;101395.65;109449;1243;57979;-75
2023/05/07 04:43:47;;;;;;;3.50;1.70;;;;;;;11.27;44.60;101393.17;109423;1244;73487;-75
2023/05/07 04:46:16;;;;;;;4.90;2.50;;;;;;;11.23;44.79;101393.13;109302;1244;72056;-76
2023/05/07 04:48:45;;;;;;;4.30;2.50;;;;;;;11.21;45.23;101389.45;109301;1243;59770;-75
2023/05/07 04:51:14;;;;;;;3.90;2.70;;;;;;;11.23;45.02;101385.10;109272;1244;72677;-75
2023/05/07 04:53:43;;;;;;;4.70;2.60;;;;;;;11.31;44.90;101380.03;109286;1246;61731;-75
2023/05/07 04:56:11;;;;;;;7.50;2.90;;;;;;;11.32;44.96;101378.27;109343;1244;61648;-74
2023/05/07 04:58:42;;;;;;;5.40;2.20;;;;;;;11.40;44.98;101380.14;109299;1243;74067;-74
2023/05/07 05:01:11;;;;;;;5.10;2.30;;;;;;;11.45;44.78;101376.21;109456;1244;62772;-74
2023/05/07 05:03:40;;;;;;;6.40;2.20;;;;;;;11.42;44.65;101379.13;109362;1243;69729;-75
2023/05/07 05:06:10;;;;;;;9.60;2.70;;;;;;;11.38;44.69;101382.34;109409;1244;74546;-76
2023/05/07 05:08:38;;;;;;;5.00;2.20;;;;;;;11.46;44.56;101381.55;109119;1247;61784;-75
2023/05/07 05:11:07;;;;;;;4.90;2.50;;;;;;;11.54;44.32;101386.23;109289;1243;57864;-75
2023/05/07 05:13:36;;;;;;;5.30;2.20;;;;;;;11.63;44.65;101395.77;109260;1243;73434;-76
2023/05/07 05:16:15;;;;;;;4.50;2.10;;;;;;;11.62;44.12;101395.77;109313;1244;72014;-75
2023/05/07 05:18:45;;;;;;;5.20;2.40;;;;;;;11.61;44.23;101397.78;109265;1244;71130;-76
2023/05/07 05:21:14;;;;;;;5.70;2.20;;;;;;;11.69;43.95;101394.13;109442;1244;65586;-75
2023/05/07 05:23:44;;;;;;;6.10;2.90;;;;;;;11.79;43.97;101398.34;109400;1247;61237;-76
2023/05/07 05:26:13;;;;;;;6.10;2.20;;;;;;;11.87;43.74;101399.58;109539;1244;57540;-76
2023/05/07 05:28:42;;;;;;;5.80;2.10;;;;;;;12.05;43.75;101403.11;109564;1244;62748;-75
2023/05/07 05:31:13;;;;;;;5.70;3.30;;;;;;;12.16;43.74;101403.38;109550;1243;72236;-75
2023/05/07 05:33:43;;;;;;;6.40;2.20;;;;;;;12.18;43.66;101403.23;109581;1244;59671;-75
2023/05/07 05:36:12;;;;;;;6.00;2.70;;;;;;;12.27;43.82;101403.54;109545;1244;73014;-75
2023/05/07 05:38:42;;;;;;;9.70;3.00;;;;;;;12.27;44.14;101404.77;109428;1244;59850;-75
2023/05/07 05:41:11;;;;;;;7.00;2.60;;;;;;;12.23;44.34;101404.48;109533;1244;61767;-75
2023/05/07 05:43:40;;;;;;;4.30;2.30;;;;;;;12.24;44.31;101402.19;109497;1243;62876;-75
2023/05/07 05:46:11;;;;;;;5.20;2.00;;;;;;;12.35;44.15;101395.45;109539;1244;61526;-75
2023/05/07 05:48:40;;;;;;;4.50;2.20;;;;;;;12.43;43.52;101395.26;109575;1243;60650;-74
2023/05/07 05:51:09;;;;;;;5.80;2.30;;;;;;;12.42;43.37;101394.05;109410;1248;63039;-76
2023/05/07 05:53:38;;;;;;;5.00;2.50;;;;;;;12.44;43.85;101395.69;109459;1244;57720;-75
2023/05/07 05:56:07;;;;;;;6.80;2.30;;;;;;;12.56;43.72;101397.65;109467;1243;60799;-74
2023/05/07 05:58:36;;;;;;;4.40;2.30;;;;;;;12.65;43.16;101390.87;109442;1242;62758;-74
2023/05/07 06:01:06;;;;;;;4.30;2.50;;;;;;;12.62;43.32;101390.23;109442;1244;61023;-75
2023/05/07 06:03:36;;;;;;;7.00;2.80;;;;;;;12.69;43.44;101396.95;109452;1244;61854;-75
2023/05/07 06:06:08;;;;;;;4.50;2.30;;;;;;;12.70;43.38;101400.55;109381;1248;63521;-74
2023/05/07 06:08:37;;;;;;;5.80;2.70;;;;;;;12.73;43.78;101404.85;109385;1244;60696;-76
2023/05/07 06:11:06;;;;;;;4.50;2.10;;;;;;;12.63;43.94;101407.97;109469;1244;57751;-76
2023/05/07 06:13:36;;;;;;;7.50;2.80;;;;;;;12.70;43.90;101410.65;109700;1244;62963;-71
2023/05/07 06:16:06;;;;;;;6.90;3.20;;;;;;;12.66;43.99;101408.13;109492;1245;60997;-75
2023/05/07 06:18:38;;;;;;;7.00;2.70;;;;;;;12.69;43.69;101408.98;109447;1244;60033;-74
2023/05/07 06:21:07;;;;;;;9.70;3.10;;;;;;;12.76;43.92;101414.78;109473;1245;63237;-76
2023/05/07 06:23:36;;;;;;;5.70;2.50;;;;;;;12.89;43.72;101418.73;109437;1245;57951;-75
2023/05/07 06:26:05;;;;;;;9.90;2.70;;;;;;;12.88;43.65;101418.87;109416;1244;57249;-76
2023/05/07 06:28:38;;;;;;;;;;;;;;;12.99;43.19;101416.64;109475;1243;63682;-75
2023/05/07 06:31:21;;;;;;;8.30;4.00;;;;;;;13.09;43.30;101417.89;109582;1244;70401;-75
2023/05/07 06:33:58;;;;;;;6.90;2.70;;;;;;;13.29;43.43;101423.99;109431;1244;71366;-75
2023/05/07 06:36:32;;;;;;;6.40;2.30;;;;;;;13.43;43.61;101422.43;109442;1244;63930;-76
2023/05/07 06:39:03;;;;;;;4.70;2.90;;;;;;;13.54;43.14;101420.39;109406;1246;61270;-76
2023/05/07 06:41:32;;;;;;;6.20;2.70;;;;;;;13.80;42.51;101425.44;109461;1244;62327;-76
2023/05/07 06:44:06;;;;;;;7.00;2.70;;;;;;;14.07;42.33;101424.68;109431;1245;63300;-75
2023/05/07 06:46:47;;;;;;;6.00;2.80;;;;;;;14.27;41.70;101420.64;109463;1245;61559;-75
2023/05/07 06:49:16;;;;;;;4.20;2.60;;;;;;;14.60;40.99;101416.22;109505;1245;69648;-76
2023/05/07 06:51:45;;;;;;;6.80;2.70;;;;;;;14.57;41.26;101417.85;109505;1244;65075;-76
2023/05/07 06:54:14;;;;;;;5.10;2.70;;;;;;;14.52;41.44;101417.17;109449;1247;57711;-75
2023/05/07 06:56:44;;;;;;;4.10;2.50;;;;;;;14.58;41.45;101416.02;109472;1243;60453;-75
2023/05/07 06:59:12;;;;;;;7.50;3.00;;;;;;;14.72;41.15;101415.81;109467;1244;74283;-75
2023/05/07 07:01:41;;;;;;;7.10;2.70;;;;;;;14.56;41.14;101414.40;109493;1243;71780;-76
2023/05/07 07:04:11;;;;;;;4.90;2.90;;;;;;;14.47;41.57;101416.17;109455;1245;60576;-75
2023/05/07 07:06:41;;;;;;;12.70;3.60;;;;;;;14.62;41.21;101418.04;109481;1244;73865;-75
2023/05/07 07:09:11;;;;;;;8.60;3.10;;;;;;;14.39;41.99;101425.38;109460;1244;57718;-75
2023/05/07 07:11:41;;;;;;;5.90;2.70;;;;;;;14.25;42.30;101426.96;109505;1244;61424;-75
2023/05/07 07:14:10;;;;;;;5.80;3.00;;;;;;;14.25;42.61;101426.77;109511;1244;73399;-76
2023/05/07 07:16:46;;;;;;;5.10;2.60;;;;;;;14.36;42.36;101416.99;109430;1244;72744;-76
2023/05/07 07:19:16;;;;;;;6.70;3.10;;;;;;;14.64;41.66;101419.04;109453;1244;70514;-75
2023/05/07 07:21:45;;;;;;;5.70;2.90;;;;;;;14.78;41.17;101422.89;109459;1244;62752;-75
2023/05/07 07:24:19;;;;;;;8.90;3.00;;;;;;;14.80;40.80;101420.22;109453;1245;57770;-76
2023/05/07 07:26:48;;;;;;;6.00;4.00;;;;;;;14.98;40.67;101413.23;109368;1245;57244;-75
2023/05/07 07:29:18;;;;;;;6.80;2.90;;;;;;;15.22;40.55;101409.87;109400;1248;62137;-76
2023/05/07 07:31:49;;;;;;;5.90;2.70;;;;;;;15.45;40.21;101405.70;109466;1243;62469;-76
2023/05/07 07:34:19;;;;;;;5.90;2.90;;;;;;;15.84;39.76;101404.28;109371;1247;59244;-75
2023/05/07 07:36:48;;;;;;;6.80;3.20;;;;;;;15.73;39.55;101398.30;109489;1244;63040;-75
2023/05/07 07:39:18;;;;;;;6.60;2.70;;;;;;;15.99;39.07;101404.23;109449;1243;60702;-78
2023/05/07 07:41:49;;;;;;;5.80;2.70;;;;;;;16.02;38.75;101403.46;109468;1245;57723;-77
2023/05/07 07:44:20;;;;;;;5.90;2.70;;;;;;;16.13;38.70;101408.11;109496;1244;62187;-75
2023/05/07 07:46:53;;;;;;;6.70;3.30;;;;;;;16.37;38.44;101406.52;109499;1242;69713;-74
2023/05/07 07:49:22;;;;;;;7.00;3.10;;;;;;;16.27;38.47;101402.29;109507;1244;70183;-76
2023/05/07 07:51:52;;;;;;;4.70;2.60;;;;;;;16.30;38.65;101397.95;109302;1244;73890;-76
2023/05/07 07:54:21;;;;;;;6.80;2.80;;;;;;;16.48;37.89;101397.07;109296;1248;57723;-75
2023/05/07 07:56:50;;;;;;;7.90;3.40;;;;;;;16.73;37.99;101400.40;109469;1245;57783;-75
2023/05/07 07:59:20;;;;;;;6.80;2.70;;;;;;;16.82;37.99;101398.90;109442;1242;64243;-76
2023/05/07 08:01:50;;;;;;;10.40;2.80;;;;;;;16.81;38.01;101395.98;109429;1245;60855;-77
2023/05/07 08:04:22;;;;;;;6.30;2.90;;;;;;;16.85;37.98;101377.81;109450;1245;59426;-75
2023/05/07 08:06:51;;;;;;;14.00;3.70;;;;;;;17.04;37.82;101388.49;109421;1244;74327;-76
2023/05/07 08:09:20;;;;;;;5.00;2.70;;;;;;;17.08;37.79;101387.64;109501;1245;57672;-76
2023/05/07 08:11:49;;;;;;;6.20;2.80;;;;;;;17.18;37.56;101389.35;109501;1244;61303;-76
2023/05/07 08:14:18;;;;;;;8.10;3.00;;;;;;;17.26;37.53;101386.21;109490;1244;63524;-76
2023/05/07 08:16:48;;;;;;;4.80;2.60;;;;;;;17.16;37.37;101383.92;109409;1245;61765;-78
2023/05/07 08:19:17;;;;;;;9.00;2.80;;;;;;;16.86;37.76;101380.41;109393;1245;59970;-76
2023/05/07 08:21:47;;;;;;;7.30;2.70;;;;;;;16.97;37.47;101381.75;109272;1244;73908;-77
2023/05/07 08:24:17;;;;;;;9.30;3.30;;;;;;;16.85;37.79;101384.21;109244;1248;61464;-77
2023/05/07 08:26:46;;;;;;;9.30;3.50;;;;;;;16.97;38.29;101379.05;109253;1248;60847;-76
2023/05/07 08:29:15;;;;;;;6.90;2.50;;;;;;;17.02;37.69;101379.15;109220;1244;73880;-75
2023/05/07 08:31:45;;;;;;;10.30;3.10;;;;;;;17.07;36.93;101376.96;109203;1245;72780;-76
2023/05/07 08:34:13;;;;;;;6.30;2.80;;;;;;;16.54;37.84;101378.77;109411;1243;70364;-75
2023/05/07 08:36:46;;;;;;;6.50;2.60;;;;;;;16.65;37.66;101373.85;109240;1244;74394;-76
2023/05/07 08:39:17;;;;;;;5.70;2.60;;;;;;;16.73;37.86;101376.61;109264;1245;57683;-76
2023/05/07 08:41:48;;;;;;;11.80;3.00;;;;;;;16.89;37.72;101378.58;109423;1245;60657;-76
2023/05/07 08:44:22;;;;;;;4.50;2.30;;;;;;;16.76;37.72;101376.54;109484;1245;72384;-76
2023/05/07 08:46:53;;;;;;;6.40;2.80;;;;;;;16.75;37.72;101367.14;109597;1245;61646;-76
2023/05/07 08:49:23;;;;;;;7.60;3.00;;;;;;;16.74;37.91;101362.30;109394;1245;59325;-76
2023/05/07 08:51:52;;;;;;;5.40;3.10;;;;;;;16.54;38.55;101362.23;109484;1245;63145;-76
2023/05/07 08:54:22;;;;;;;5.30;2.80;;;;;;;16.37;38.77;101357.64;109610;1244;60485;-76
2023/05/07 08:56:50;;;;;;;5.30;2.70;;;;;;;16.31;39.04;101357.09;109436;1248;61453;-76
2023/05/07 08:59:19;;;;;;;7.40;2.90;;;;;;;16.16;39.34;101353.80;109526;1245;74123;-76
2023/05/07 09:01:48;;;;;;;8.20;2.80;;;;;;;16.03;39.70;101353.99;109434;1248;61364;-77
2023/05/07 09:04:17;;;;;;;11.50;3.20;;;;;;;15.77;40.38;101355.54;109437;1243;70454;-78
2023/05/07 09:06:47;;;;;;;4.70;2.50;;;;;;;15.90;40.22;101352.18;109517;1244;73798;-78
2023/05/07 09:09:20;;;;;;;8.40;3.40;;;;;;;15.82;40.57;101355.47;109443;1245;61901;-76
2023/05/07 09:12:01;;;;;;;8.00;3.10;;;;;;;15.82;40.67;101359.34;109396;1248;57314;-77
2023/05/07 09:14:32;;;;;;;5.00;2.70;;;;;;;15.75;41.01;101358.84;109404;1244;73566;-75
2023/05/07 09:17:01;;;;;;;7.50;2.80;;;;;;;15.73;41.22;101357.08;109483;1245;61215;-75
2023/05/07 09:19:30;;;;;;;6.00;2.70;;;;;;;15.65;41.26;101359.66;109493;1245;60665;-74
2023/05/07 09:22:04;;;;;;;7.60;3.60;;;;;;;15.58;41.34;101360.98;109449;1248;63340;-75
2023/05/07 09:24:41;;;;;;;10.30;3.00;;;;;;;15.54;41.55;101361.40;109365;1248;61363;-77
2023/05/07 09:27:13;;;;;;;6.90;2.90;;;;;;;15.49;41.36;101362.73;109623;1247;57249;-76
2023/05/07 09:29:44;;;;;;;7.30;3.20;;;;;;;15.37;41.25;101365.65;109468;1243;73482;-73
2023/05/07 09:32:14;;;;;;;5.00;2.70;;;;;;;15.42;41.56;101369.17;109439;1244;72282;-75
2023/05/07 09:34:43;;;;;;;5.70;3.10;;;;;;;15.41;41.60;101374.48;109439;1244;70318;-74
2023/05/07 09:37:14;;;;;;;9.20;3.20;;;;;;;15.35;42.10;101375.80;109501;1244;74255;-75
2023/05/07 09:39:45;;;;;;;13.20;3.20;;;;;;;15.29;42.18;101371.23;109483;1245;62887;-75
2023/05/07 09:42:15;;;;;;;5.60;2.90;;;;;;;15.42;42.05;101371.95;109600;1244;60880;-74
2023/05/07 09:44:44;;;;;;;7.30;2.90;;;;;;;15.47;42.21;101370.47;109396;1244;73446;-74
2023/05/07 09:47:19;;;;;;;;;;;;;;;15.48;42.11;101369.14;109372;1244;72621;-82
2023/05/07 09:49:50;;;;;;;7.10;3.30;;;;;;;15.62;41.93;101370.46;109488;1244;60260;-75
2023/05/07 09:52:21;;;;;;;6.40;2.90;;;;;;;15.82;41.44;101370.21;109295;1244;72710;-74
2023/05/07 09:54:53;;;;;;;5.80;3.20;;;;;;;15.97;41.48;101372.31;109434;1246;61688;-73
2023/05/07 09:57:24;;;;;;;6.50;3.10;;;;;;;16.07;40.83;101375.27;109439;1245;60948;-74
2023/05/07 09:59:58;;;;;;;6.60;2.90;;;;;;;16.25;40.25;101370.10;109372;1247;64512;-76
2023/05/07 10:02:30;;;;;;;6.50;3.20;;;;;;;16.22;39.97;101365.58;109145;1244;62679;-76
2023/05/07 10:05:00;;;;;;;5.70;2.90;;;;;;;16.33;39.74;101361.27;109368;1244;60510;-75
2023/05/07 10:07:31;;;;;;;7.00;3.50;;;;;;;16.52;39.66;101357.01;109293;1244;72157;-75
2023/05/07 10:10:07;;;;;;;5.70;2.50;;;;;;;16.47;39.44;101348.80;109261;1247;57683;-73
2023/05/07 10:12:40;;;;;;;8.00;3.40;;;;;;;16.50;39.44;101357.38;109289;1244;60329;-77
2023/05/07 10:15:14;;;;;;;9.00;3.30;;;;;;;16.42;39.46;101361.89;109183;1244;62348;-76
2023/05/07 10:17:48;;;;;;;8.60;3.10;;;;;;;16.42;39.60;101360.35;109322;1244;71762;-76
2023/05/07 10:20:17;;;;;;;5.00;3.00;;;;;;;16.57;39.35;101354.11;109263;1244;60539;-76
2023/05/07 10:22:49;;;;;;;8.50;3.20;;;;;;;16.41;39.60;101348.96;109316;1244;63268;-76
2023/05/07 10:25:28;;;;;;;5.70;2.90;;;;;;;16.49;39.52;101341.95;109227;1246;61852;-77
2023/05/07 10:28:07;;;;;;;10.40;2.50;;;;;;;16.58;39.54;101340.83;109348;1244;62162;-76
2023/05/07 10:30:53;;;;;;;10.40;5.10;;;;;;;16.85;39.32;101343.01;109570;1244;63384;-75
2023/05/07 10:33:28;;;;;;;7.20;2.70;;;;;;;16.75;39.20;101341.06;109437;1244;72177;-75
2023/05/07 10:36:04;;;;;;;5.50;2.70;;;;;;;16.78;39.14;101342.43;109392;1244;59634;-84
2023/05/07 10:38:33;;;;;;;8.60;4.50;;;;;;;16.76;39.01;101343.85;109281;1244;63515;-85
2023/05/07 10:41:05;;;;;;;5.80;3.10;;;;;;;16.81;39.16;101345.01;109195;1248;61262;-78
2023/05/07 10:43:43;;;;;;;6.90;3.10;;;;;;;17.01;38.86;101347.27;109421;1245;61719;-73
2023/05/07 10:46:25;;;;;;;6.40;3.40;;;;;;;17.08;39.03;101348.74;109408;1243;73957;-73
2023/05/07 10:49:14;;;;;;;6.80;3.30;;;;;;;17.31;39.03;101348.39;109466;1244;72598;-75
2023/05/07 10:52:21;;;;;;;5.60;3.10;;;;;;;17.55;38.32;101348.32;109274;1244;70043;-73
2023/05/07 10:55:21;;;;;;;5.60;2.80;;;;;;;17.40;37.95;101343.67;109384;1244;74199;-72
2023/05/07 10:58:45;;;;;;;5.70;2.90;;;;;;;17.53;38.01;101342.55;109380;1244;62060;-75
2023/05/07 11:01:57;;;;;;;4.60;2.70;;;;;;;17.74;38.07;101345.55;109392;1244;61618;-74
2023/05/07 11:05:23;;;;;;;4.50;2.70;;;;;;;17.53;38.24;101347.57;109275;1242;74325;-74
2023/05/07 13:18:11;;;;;;;6.70;3.20;;;;;;;15.50;54.57;101328.13;104945;1275;600789;-77
2023/05/07 13:20:40;;;;;;;7.10;3.40;;;;;;;15.40;54.15;101328.36;107244;1248;57736;-76
2023/05/07 13:23:09;;;;;;;5.60;2.60;;;;;;;15.39;54.28;101326.34;107131;1251;59488;-74
2023/05/07 13:25:38;;;;;;;7.40;4.10;;;;;;;15.39;54.17;101319.48;106833;1247;71883;-75
2023/05/07 13:28:07;;;;;;;5.70;3.20;;;;;;;15.57;55.21;101322.38;107469;1244;72223;-75
2023/05/07 13:30:40;;;;;;;8.30;3.30;;;;;;;15.67;54.52;101321.20;106930;1251;238549;-75
2023/05/07 13:33:09;;;;;;;5.50;3.40;;;;;;;15.74;56.03;101319.42;107382;1254;72309;-74
2023/05/07 13:35:38;;;;;;;10.40;3.50;;;;;;;15.75;54.94;101320.04;107499;1241;61276;-74
2023/05/07 13:38:07;;;;;;;5.20;3.10;;;;;;;15.76;54.26;101314.52;107390;1245;60965;-75
2023/05/07 13:40:36;;;;;;;10.20;3.50;;;;;;;15.48;54.06;101312.46;107305;1241;71497;-74
2023/05/07 13:43:05;;;;;;;8.90;3.50;;;;;;;15.61;55.95;101314.23;107336;1241;71346;-74
2023/05/07 13:45:34;;;;;;;5.60;3.00;;;;;;;15.59;54.12;101309.48;107411;1241;61018;-74